Seguin, TX (78155)

5:29 AM CST on November 23, 2014 (GMT -0600)
College Heights | Change Station
CLOSE
Current Station
Personal Weather Station
Location: Seguin, TX
Elevation: 554 ft
Nearby Weather Stations

Elev 554 ft 29.58 °N, 97.96 °W | Updated 57 seconds ago

Clear
Clear
56.3 °F
Feels Like 56.3 °F
N
0.0
Wind Variable Wind from North
Gusts 0.0 mph

Today
High -- | Low -- °F
--% Chance of Precip.
Yesterday
High -- | Low -- °F
Precip. -- in
7:02 AM 5:33 PM
New Moon, 1% visible
Pressure 29.68 in
Visibility 2.0 miles
Clouds Clear
Dew Point 56 °F
Humidity 99%
Rainfall 0.00 in
Snow Depth Not available.
UV 0 out of 12
Pollen .50 out of 12
Air Quality Not available.
Flu Activity Not available.
SPECI KBAZ 231125Z AUTO 24004KT 2SM BR CLR 13/12 A2968 RMK AO2 T01280117 $

More Conditions Fewer Conditions

Pressure 29.68 in
Visibility 2.0 miles
Clouds Clear
Dew Point 56 °F
Humidity 99%
Rainfall 0.00 in
Snow Depth Not available.
UV 0 out of 12
Pollen .50 out of 12
Air Quality Not available.
Flu Activity Not available.
SPECI KBAZ 231125Z AUTO 24004KT 2SM BR CLR 13/12 A2968 RMK AO2 T01280117 $

More Conditions Fewer Conditions

10-Day Weather Forecast

Almanac

Astronomy

Nov. 23, 2014 Rise Set
Actual Time
Civil Twilight
Nautical Twilight
Astronomical Twilight
Moon
Length of Visible Light
Length of Day
Tomorrow will be .
, % of the Moon is Illuminated

Today's Extremes

State Highs State Lows

Community

WunderPhotos

Upload Photos

1,773,036 photos uploaded!

WunderBlogs® & News

Nearby

Air Quality

  Air Quality AQ Index Pollutant
Not available.

Snow Depth

Station Depth Elevation

Earthquake Activity

City Distance Mag. Time & Date
Minimum magnitude displayed is 2.5.

Coastal Water Temperatures

Place Temperature

Nearby Weather Stations